Time;durP1;ratioP1;P1;durP2;ratioP2;P2;SDS_P1;SDS_P2;PMS_P1;PMS_P2;Temp;Humidity;BMP_temperature;BMP_pressure;BME280_temperature;BME280_humidity;BME280_pressure;Samples;Min_cycle;Max_cycle;Signal;HPM_P1;HPM_P2
2022/09/07 00:00:49;;;;;;;3.03;1.20;;;15.80;99.90;;;;;;5138690;28;20378;-80
2022/09/07 00:03:16;;;;;;;2.22;1.02;;;15.90;99.90;;;;;;5132409;28;20390;-81
2022/09/07 00:05:46;;;;;;;3.72;1.20;;;15.90;99.90;;;;;;5103565;28;20371;-81
2022/09/07 00:08:15;;;;;;;4.35;1.38;;;16.00;99.90;;;;;;5103558;28;20432;-84
2022/09/07 00:10:55;;;;;;;3.42;1.20;;;16.00;99.90;;;;;;5120073;28;20430;-87
2022/09/07 00:13:24;;;;;;;4.10;1.10;;;16.00;99.90;;;;;;5118780;28;20786;-86
2022/09/07 00:15:52;;;;;;;2.67;1.10;;;16.20;99.90;;;;;;5097941;28;20403;-80
2022/09/07 00:18:19;;;;;;;3.13;1.10;;;16.50;99.90;;;;;;5116036;28;20363;-81
2022/09/07 00:20:46;;;;;;;3.38;1.10;;;16.70;99.90;;;;;;5115910;28;20746;-81
2022/09/07 00:23:13;;;;;;;4.20;1.30;;;16.90;99.90;;;;;;5115542;28;20854;-80
2022/09/07 00:25:42;;;;;;;2.72;1.17;;;17.10;99.90;;;;;;5115201;28;20373;-80
2022/09/07 00:28:09;;;;;;;5.03;1.30;;;17.40;99.90;;;;;;5115754;28;20408;-80
2022/09/07 00:30:41;;;;;;;3.42;1.27;;;17.60;99.90;;;;;;5115320;28;20457;-80
2022/09/07 00:33:09;;;;;;;2.97;1.23;;;17.70;99.90;;;;;;5097642;28;20738;-81
2022/09/07 00:35:41;;;;;;;3.00;1.30;;;17.80;99.90;;;;;;5115547;28;20363;-81
2022/09/07 00:38:08;;;;;;;2.80;0.90;;;17.90;99.90;;;;;;5115026;28;20395;-80
2022/09/07 00:40:36;;;;;;;2.67;1.00;;;18.00;99.90;;;;;;5096759;28;20382;-81
2022/09/07 00:43:04;;;;;;;5.20;1.10;;;18.10;99.90;;;;;;5114872;28;20358;-80
2022/09/07 00:45:32;;;;;;;4.22;1.10;;;18.30;99.90;;;;;;5115269;28;20378;-80
2022/09/07 00:48:08;;;;;;;3.30;1.20;;;18.20;99.60;;;;;;5112405;28;20842;-81
2022/09/07 00:50:46;;;;;;;3.10;1.30;;;18.30;99.50;;;;;;5114720;28;20398;-81
2022/09/07 00:53:27;;;;;;;3.20;1.30;;;18.50;99.30;;;;;;5116753;28;20367;-80
2022/09/07 00:55:59;;;;;;;3.67;1.60;;;18.40;98.70;;;;;;5116711;28;20714;-80
2022/09/07 00:58:26;;;;;;;3.53;1.50;;;18.40;97.20;;;;;;5097337;28;20375;-80
2022/09/07 01:00:54;;;;;;;3.20;1.40;;;18.20;97.50;;;;;;5116568;28;20829;-81
2022/09/07 01:03:33;;;;;;;3.22;1.13;;;18.10;99.50;;;;;;5116991;28;20403;-80
2022/09/07 01:06:14;;;;;;;4.60;1.10;;;18.40;99.00;;;;;;5115788;28;20377;-81
2022/09/07 01:08:43;;;;;;;3.70;1.10;;;18.60;98.20;;;;;;5114371;28;20495;-82
2022/09/07 01:11:11;;;;;;;3.28;1.10;;;18.90;97.30;;;;;;5114481;28;20455;-81
2022/09/07 01:13:41;;;;;;;3.95;0.90;;;19.20;96.00;;;;;;5114476;28;20853;-80
2022/09/07 01:16:34;;;;;;;2.70;0.90;;;19.40;93.80;;;;;;5114705;28;20374;-81
2022/09/07 01:19:21;;;;;;;2.47;0.80;;;19.30;92.80;;;;;;5115544;28;20367;-81
2022/09/07 01:22:23;;;;;;;2.67;0.70;;;19.30;92.40;;;;;;5036137;28;20388;-81
2022/09/07 01:25:02;;;;;;;1.77;0.77;;;19.40;93.40;;;;;;5037411;28;20447;-82
2022/09/07 01:27:50;;;;;;;4.20;0.90;;;19.90;91.40;;;;;;5020913;28;20390;-80
2022/09/07 01:30:23;;;;;;;5.28;1.20;;;20.10;90.30;;;;;;5033825;28;20417;-81
2022/09/07 01:32:59;;;;;;;2.35;1.05;;;20.50;87.80;;;;;;5032508;28;20378;-81
2022/09/07 01:36:02;;;;;;;3.70;1.02;;;20.80;86.30;;;;;;5032729;28;20415;-81
2022/09/07 01:38:51;;;;;;;3.25;1.10;;;21.10;87.20;;;;;;5031555;28;20927;-83
2022/09/07 01:41:21;;;;;;;4.93;1.20;;;21.40;83.90;;;;;;5031849;28;20381;-81
2022/09/07 01:44:18;;;;;;;3.22;1.10;;;21.20;83.30;;;;;;5031468;28;20378;-82
2022/09/07 01:46:50;;;;;;;3.20;0.90;;;20.60;82.00;;;;;;5031073;28;20369;-81
2022/09/07 01:49:25;;;;;;;3.20;1.08;;;21.30;84.20;;;;;;5032484;28;20737;-81
2022/09/07 01:51:58;;;;;;;4.03;1.03;;;22.50;77.80;;;;;;5030989;28;20401;-82
2022/09/07 01:54:44;;;;;;;3.72;0.90;;;23.10;76.10;;;;;;5031171;28;20499;-81
2022/09/07 01:57:24;;;;;;;2.00;0.80;;;23.60;70.80;;;;;;5032360;28;20381;-81
2022/09/07 02:00:09;;;;;;;1.77;0.80;;;24.00;67.10;;;;;;5106867;28;20884;-82
2022/09/07 02:03:00;;;;;;;2.10;0.90;;;24.30;65.90;;;;;;5113630;28;20370;-81
2022/09/07 02:05:36;;;;;;;2.08;0.80;;;24.60;65.10;;;;;;5115013;28;20374;-81
2022/09/07 02:08:09;;;;;;;2.25;0.90;;;25.10;62.30;;;;;;5114571;28;20373;-81
2022/09/07 02:10:44;;;;;;;2.28;0.88;;;25.40;61.40;;;;;;5114979;28;20382;-80
2022/09/07 02:13:17;;;;;;;3.25;0.90;;;25.60;59.60;;;;;;5115551;28;20359;-81
2022/09/07 02:15:55;;;;;;;2.10;1.00;;;25.60;58.10;;;;;;5115950;28;20419;-79
2022/09/07 02:18:25;;;;;;;2.38;0.90;;;25.30;58.10;;;;;;5116010;28;20362;-81
2022/09/07 02:20:56;;;;;;;1.40;0.90;;;25.00;60.30;;;;;;5095082;28;20363;-81
2022/09/07 02:23:40;;;;;;;1.95;0.85;;;25.00;59.10;;;;;;5113000;28;20865;-81
2022/09/07 02:26:14;;;;;;;2.53;0.90;;;25.10;57.40;;;;;;5114942;28;20809;-81
2022/09/07 02:29:01;;;;;;;2.35;0.80;;;23.90;61.00;;;;;;5115774;28;20382;-81
2022/09/07 02:31:28;;;;;;;3.30;0.85;;;23.30;63.30;;;;;;5116081;28;20441;-80
2022/09/07 02:33:55;;;;;;;2.40;0.80;;;23.70;63.40;;;;;;5116103;28;20374;-81
2022/09/07 02:36:28;;;;;;;2.10;0.87;;;24.20;60.70;;;;;;5114800;28;20374;-81
2022/09/07 02:38:55;;;;;;;2.87;0.90;;;24.30;59.10;;;;;;5112519;28;20369;-81
2022/09/07 02:41:38;;;;;;;2.53;0.90;;;24.40;59.70;;;;;;5114883;28;20374;-81
2022/09/07 02:44:12;;;;;;;1.15;0.90;;;24.60;60.00;;;;;;5079795;28;20390;-80
2022/09/07 02:47:11;;;;;;;1.77;0.90;;;24.80;60.60;;;;;;5114829;28;20399;-81
2022/09/07 02:50:03;;;;;;;1.77;0.73;;;25.30;59.80;;;;;;5032568;28;20374;-79
2022/09/07 02:52:54;;;;;;;1.83;0.90;;;24.10;58.80;;;;;;5031753;28;20467;-80
2022/09/07 02:55:41;;;;;;;1.80;1.00;;;23.40;61.30;;;;;;5032144;28;20376;-78
2022/09/07 02:58:55;;;;;;;2.57;0.90;;;23.00;61.40;;;;;;5018080;28;20377;-80
2022/09/07 03:01:41;;;;;;;4.23;1.00;;;22.30;63.40;;;;;;4997050;28;20402;-80
2022/09/07 03:04:31;;;;;;;2.55;0.98;;;21.90;65.30;;;;;;5013704;28;20368;-80
2022/09/07 03:07:10;;;;;;;3.42;1.00;;;21.50;66.40;;;;;;5013759;28;20375;-81
2022/09/07 03:09:40;;;;;;;2.03;0.80;;;21.30;67.40;;;;;;5013454;28;20410;-80
2022/09/07 03:12:08;;;;;;;2.53;1.20;;;21.20;67.80;;;;;;5012359;28;20406;-78
2022/09/07 03:14:38;;;;;;;2.15;0.93;;;21.00;69.70;;;;;;5013271;28;20520;-80
2022/09/07 03:17:05;;;;;;;2.33;0.90;;;20.90;69.80;;;;;;5013469;28;20379;-79
2022/09/07 03:19:35;;;;;;;2.53;1.00;;;20.90;69.40;;;;;;5013071;28;20470;-79
2022/09/07 03:22:05;;;;;;;3.63;1.13;;;21.20;70.10;;;;;;5016295;28;20403;-80
2022/09/07 03:24:32;;;;;;;4.15;1.00;;;21.50;67.90;;;;;;5017580;28;20822;-80
2022/09/07 03:27:01;;;;;;;4.00;1.10;;;21.40;68.30;;;;;;5057958;28;20674;-81
2022/09/07 03:29:28;;;;;;;2.53;1.08;;;21.50;67.10;;;;;;5074595;28;20366;-81
2022/09/07 03:31:55;;;;;;;2.88;1.10;;;21.20;67.70;;;;;;5087297;28;20420;-80
2022/09/07 03:34:22;;;;;;;1.90;1.10;;;20.90;68.80;;;;;;5117120;28;20377;-80
2022/09/07 03:36:49;;;;;;;3.38;1.20;;;20.60;70.80;;;;;;5116654;28;20375;-80
2022/09/07 03:39:19;;;;;;;2.67;1.00;;;20.30;71.90;;;;;;5115971;28;20393;-80
2022/09/07 03:41:47;;;;;;;3.78;1.15;;;20.20;73.10;;;;;;5116463;28;20374;-80
2022/09/07 03:44:14;;;;;;;2.80;1.20;;;20.00;74.40;;;;;;5116035;28;20407;-81
2022/09/07 03:46:41;;;;;;;2.13;1.00;;;19.90;75.40;;;;;;5115950;28;20538;-77
2022/09/07 03:49:08;;;;;;;1.50;0.80;;;19.80;76.00;;;;;;5115769;28;20363;-77
2022/09/07 03:51:35;;;;;;;1.90;1.00;;;19.80;75.50;;;;;;5115573;28;20742;-84
2022/09/07 03:54:03;;;;;;;1.77;0.80;;;19.90;73.80;;;;;;5116033;28;20819;-80
2022/09/07 03:56:31;;;;;;;1.98;0.90;;;19.80;73.60;;;;;;5115710;28;20386;-76
2022/09/07 03:58:58;;;;;;;3.55;1.10;;;19.80;74.00;;;;;;5115865;28;20721;-76
2022/09/07 04:01:26;;;;;;;2.33;0.85;;;19.90;74.10;;;;;;5115292;28;20378;-78
2022/09/07 04:03:56;;;;;;;4.32;1.02;;;19.90;73.80;;;;;;5115602;28;20419;-77
2022/09/07 04:06:23;;;;;;;3.08;0.93;;;19.80;74.60;;;;;;5115286;28;20412;-79
2022/09/07 04:08:50;;;;;;;1.93;0.80;;;19.80;74.40;;;;;;5115180;28;20753;-78
2022/09/07 04:11:18;;;;;;;2.50;1.15;;;19.90;74.50;;;;;;5115224;28;20441;-77
2022/09/07 04:13:46;;;;;;;1.90;0.90;;;20.00;73.50;;;;;;5115435;28;20383;-78
2022/09/07 04:16:24;;;;;;;1.65;0.93;;;20.20;72.90;;;;;;5115306;28;20367;-78
2022/09/07 04:18:55;;;;;;;1.40;0.85;;;20.60;71.70;;;;;;5115443;28;20363;-78
2022/09/07 04:21:24;;;;;;;1.85;0.70;;;21.70;69.80;;;;;;5115268;28;20378;-78
2022/09/07 04:23:52;;;;;;;1.70;0.80;;;23.40;65.00;;;;;;5115632;28;20375;-80
2022/09/07 04:26:20;;;;;;;1.70;0.77;;;25.10;61.30;;;;;;5112492;28;20454;-77
2022/09/07 04:28:48;;;;;;;2.08;0.80;;;25.60;55.70;;;;;;5116347;28;20363;-82
2022/09/07 04:31:16;;;;;;;2.00;0.90;;;25.00;55.70;;;;;;5116466;28;20448;-81
2022/09/07 04:33:44;;;;;;;2.30;0.90;;;24.70;56.90;;;;;;5119147;28;20453;-82
2022/09/07 04:36:12;;;;;;;2.90;0.80;;;25.30;56.80;;;;;;5120394;28;20374;-80
2022/09/07 04:38:39;;;;;;;2.05;0.70;;;26.10;54.50;;;;;;5117317;28;20365;-81
2022/09/07 04:41:11;;;;;;;9.20;1.20;;;26.90;53.80;;;;;;5099342;28;20382;-81
2022/09/07 04:43:39;;;;;;;1.15;0.60;;;27.20;51.80;;;;;;5116673;28;20359;-80
2022/09/07 04:46:18;;;;;;;2.72;0.73;;;27.50;51.10;;;;;;5115497;28;20853;-81
2022/09/07 04:48:57;;;;;;;1.23;0.68;;;28.10;50.00;;;;;;5097205;28;20380;-80
2022/09/07 04:51:27;;;;;;;1.10;0.70;;;28.40;47.60;;;;;;5114961;28;20452;-80
2022/09/07 04:53:56;;;;;;;1.73;0.80;;;28.30;47.10;;;;;;5115350;28;20370;-81
2022/09/07 04:56:24;;;;;;;2.47;0.87;;;28.00;47.40;;;;;;5096593;28;20375;-82
2022/09/07 04:58:51;;;;;;;1.02;0.73;;;27.70;48.90;;;;;;5114845;28;20897;-82
2022/09/07 05:01:22;;;;;;;2.10;0.80;;;27.70;48.30;;;;;;5115559;28;20366;-82
2022/09/07 05:03:49;;;;;;;1.40;0.70;;;26.70;48.40;;;;;;5115094;28;20371;-82
2022/09/07 05:06:18;;;;;;;1.90;0.80;;;25.40;49.90;;;;;;5114526;28;20792;-80
2022/09/07 05:08:50;;;;;;;1.65;0.80;;;24.00;53.50;;;;;;5114217;28;20797;-80
2022/09/07 05:11:18;;;;;;;2.78;1.00;;;22.60;56.80;;;;;;5114332;28;20417;-80
2022/09/07 05:13:46;;;;;;;1.67;0.90;;;21.70;59.20;;;;;;5114388;28;20358;-79
2022/09/07 05:16:19;;;;;;;2.72;0.90;;;21.10;61.20;;;;;;5114364;28;20371;-80
2022/09/07 05:18:50;;;;;;;1.13;0.80;;;20.60;62.10;;;;;;5114460;28;20838;-80
2022/09/07 05:21:21;;;;;;;1.80;1.00;;;20.10;63.40;;;;;;5114368;28;20929;-80
2022/09/07 05:23:59;;;;;;;3.00;1.10;;;19.80;67.60;;;;;;5115476;28;20495;-82
2022/09/07 05:26:31;;;;;;;3.50;1.13;;;19.60;71.70;;;;;;5116754;28;20371;-81
2022/09/07 05:29:01;;;;;;;3.03;0.93;;;19.60;75.00;;;;;;5115498;28;20351;-80
2022/09/07 05:31:28;;;;;;;3.10;1.10;;;19.50;74.70;;;;;;5115704;28;20406;-80
2022/09/07 05:33:59;;;;;;;3.35;1.08;;;19.50;75.80;;;;;;5097827;28;20378;-80
2022/09/07 05:36:27;;;;;;;3.55;1.20;;;19.30;77.80;;;;;;5116806;28;20406;-80
2022/09/07 05:38:57;;;;;;;2.33;1.00;;;19.10;79.70;;;;;;5096427;28;20480;-81
2022/09/07 05:41:26;;;;;;;1.55;1.00;;;19.00;81.10;;;;;;5114277;28;20370;-80
2022/09/07 05:43:54;;;;;;;2.60;1.08;;;18.80;82.40;;;;;;5113376;28;20435;-81
2022/09/07 05:46:22;;;;;;;2.45;1.00;;;18.80;83.40;;;;;;5113660;28;20414;-81
2022/09/07 05:48:49;;;;;;;1.90;1.00;;;18.70;82.70;;;;;;5113554;28;20359;-82
2022/09/07 05:51:17;;;;;;;4.70;1.02;;;18.60;83.40;;;;;;5113872;28;20897;-84
2022/09/07 05:53:46;;;;;;;3.70;1.40;;;18.50;84.60;;;;;;5114446;28;20375;-83
2022/09/07 05:56:13;;;;;;;4.25;1.10;;;18.50;85.00;;;;;;5113671;28;20371;-80
2022/09/07 05:58:41;;;;;;;4.03;1.20;;;18.50;87.00;;;;;;5113428;28;20378;-80
2022/09/07 06:01:10;;;;;;;4.00;1.27;;;18.40;89.70;;;;;;5113194;28;20446;-81
2022/09/07 06:03:39;;;;;;;4.70;1.27;;;18.30;90.90;;;;;;5113107;28;20381;-81
2022/09/07 06:06:15;;;;;;;4.00;1.15;;;18.20;92.30;;;;;;5113591;28;20420;-78
2022/09/07 06:08:51;;;;;;;3.67;1.27;;;18.20;93.20;;;;;;5112767;28;20893;-81
2022/09/07 06:11:23;;;;;;;4.40;1.30;;;18.20;93.80;;;;;;5113370;28;20402;-79
2022/09/07 06:13:52;;;;;;;2.70;1.20;;;18.30;94.10;;;;;;5116677;28;20496;-79
2022/09/07 06:16:22;;;;;;;5.05;1.20;;;18.40;93.90;;;;;;5114091;28;20391;-80
2022/09/07 06:18:50;;;;;;;3.55;1.33;;;18.60;93.40;;;;;;5114820;28;20371;-79
2022/09/07 06:21:20;;;;;;;3.28;1.10;;;18.70;93.30;;;;;;5115423;28;20367;-78
2022/09/07 06:23:49;;;;;;;3.47;1.08;;;18.80;92.60;;;;;;5096031;28;20446;-78
2022/09/07 06:26:18;;;;;;;3.70;1.20;;;18.70;92.60;;;;;;5115291;28;20379;-79
2022/09/07 06:28:47;;;;;;;2.80;0.93;;;18.50;93.10;;;;;;5114543;28;20366;-78
2022/09/07 06:31:19;;;;;;;2.93;1.00;;;18.50;93.30;;;;;;5114736;28;20466;-79
2022/09/07 06:33:47;;;;;;;4.32;1.40;;;18.30;93.50;;;;;;5112277;28;20383;-80
2022/09/07 06:36:26;;;;;;;4.57;1.30;;;18.20;93.90;;;;;;5114405;28;20450;-79
2022/09/07 06:38:54;;;;;;;3.70;1.17;;;18.10;94.70;;;;;;5112208;28;20379;-80
2022/09/07 06:41:29;;;;;;;2.38;1.17;;;18.20;94.40;;;;;;5115497;28;20366;-80
2022/09/07 06:43:57;;;;;;;2.78;1.08;;;18.20;94.50;;;;;;5114062;28;20375;-79
2022/09/07 06:46:26;;;;;;;3.42;1.25;;;18.10;94.70;;;;;;5095331;28;20371;-78
2022/09/07 06:48:54;;;;;;;3.20;1.10;;;18.10;95.20;;;;;;5113442;28;20390;-80
2022/09/07 06:51:25;;;;;;;5.00;1.30;;;18.00;95.60;;;;;;5113074;28;20383;-78
2022/09/07 06:53:55;;;;;;;3.33;1.08;;;17.90;96.00;;;;;;5095280;28;20493;-78
2022/09/07 06:56:26;;;;;;;4.37;1.20;;;17.80;96.40;;;;;;5116110;28;20395;-79
2022/09/07 06:58:54;;;;;;;2.70;1.05;;;17.60;96.80;;;;;;5118295;28;20366;-78
2022/09/07 07:01:23;;;;;;;3.20;1.10;;;17.50;97.70;;;;;;5118077;28;20367;-80
2022/09/07 07:03:52;;;;;;;4.03;1.20;;;17.30;98.20;;;;;;5118257;28;20424;-78
2022/09/07 07:06:19;;;;;;;4.55;1.17;;;17.20;98.80;;;;;;5117145;28;20431;-80
2022/09/07 07:08:47;;;;;;;3.72;1.20;;;17.10;99.30;;;;;;5117002;28;20394;-80
2022/09/07 07:11:15;;;;;;;4.05;1.10;;;16.90;99.90;;;;;;5116653;28;20889;-81
2022/09/07 07:13:44;;;;;;;2.70;1.27;;;16.70;99.90;;;;;;5117561;28;20374;-79
2022/09/07 07:16:13;;;;;;;3.38;1.10;;;16.60;99.90;;;;;;5118514;28;20367;-80
2022/09/07 07:18:42;;;;;;;3.92;1.20;;;16.50;99.90;;;;;;5118179;28;20368;-80
2022/09/07 07:21:12;;;;;;;4.97;1.20;;;16.30;99.90;;;;;;5100421;28;20862;-80
2022/09/07 07:23:43;;;;;;;3.15;1.00;;;16.20;99.90;;;;;;5118264;28;20374;-81
2022/09/07 07:26:16;;;;;;;4.68;1.13;;;16.10;99.90;;;;;;5100921;28;20407;-80
2022/09/07 07:28:44;;;;;;;5.03;1.23;;;16.00;99.90;;;;;;5117715;28;20459;-79
2022/09/07 07:31:15;;;;;;;3.50;1.10;;;15.90;99.90;;;;;;5100833;28;20477;-80
2022/09/07 07:33:43;;;;;;;3.08;1.10;;;15.80;99.90;;;;;;5125420;28;20379;-81
2022/09/07 07:36:17;;;;;;;3.70;1.20;;;15.80;99.90;;;;;;5124664;28;20352;-81
2022/09/07 07:38:47;;;;;;;3.30;1.10;;;15.60;99.90;;;;;;5124380;28;20359;-80
2022/09/07 07:41:15;;;;;;;4.07;1.45;;;15.50;99.90;;;;;;5125400;28;20386;-80
2022/09/07 07:43:43;;;;;;;4.00;1.42;;;15.40;99.90;;;;;;5123302;28;20860;-79
2022/09/07 07:46:15;;;;;;;3.53;1.40;;;15.30;99.90;;;;;;5123157;28;20379;-78
2022/09/07 07:48:47;;;;;;;3.50;1.20;;;15.20;99.90;;;;;;5119877;28;20415;-78
2022/09/07 07:51:14;;;;;;;2.95;1.30;;;15.20;99.90;;;;;;5101138;28;20421;-76
2022/09/07 07:53:43;;;;;;;4.60;1.30;;;15.20;99.90;;;;;;5103275;28;20511;-80
2022/09/07 07:56:11;;;;;;;3.05;1.10;;;15.20;99.90;;;;;;5099002;28;20878;-78
2022/09/07 07:58:39;;;;;;;2.77;1.10;;;15.20;99.90;;;;;;5119149;28;20703;-78
2022/09/07 08:01:09;;;;;;;4.35;1.10;;;15.30;99.90;;;;;;5121216;28;20382;-78
2022/09/07 08:03:38;;;;;;;2.92;1.33;;;15.30;99.90;;;;;;5120586;28;20370;-82
2022/09/07 08:06:14;;;;;;;4.45;1.30;;;15.30;99.90;;;;;;5121678;28;20712;-76
2022/09/07 08:08:42;;;;;;;2.72;1.20;;;15.30;99.90;;;;;;5121416;28;20442;-76
2022/09/07 08:11:15;;;;;;;3.63;1.27;;;15.30;99.90;;;;;;5121358;28;20397;-79
2022/09/07 08:13:48;;;;;;;2.45;1.10;;;15.30;99.90;;;;;;5120940;28;20367;-80
2022/09/07 08:16:16;;;;;;;4.25;1.30;;;15.30;99.90;;;;;;5101940;28;20367;-80
2022/09/07 08:18:44;;;;;;;6.07;2.97;;;15.40;99.90;;;;;;5121372;28;20386;-77
2022/09/07 08:21:13;;;;;;;6.20;2.15;;;15.30;99.90;;;;;;5120087;28;20374;-81
2022/09/07 08:23:41;;;;;;;3.38;1.38;;;15.20;99.90;;;;;;5116548;28;20382;-81
2022/09/07 08:26:09;;;;;;;2.42;1.23;;;15.10;99.90;;;;;;5118999;28;20378;-85
2022/09/07 08:28:39;;;;;;;5.63;2.00;;;15.00;99.90;;;;;;5119676;28;20379;-80
2022/09/07 08:31:08;;;;;;;8.15;4.95;;;15.00;99.90;;;;;;5119687;28;20749;-80
2022/09/07 08:33:36;;;;;;;5.60;2.88;;;14.90;99.90;;;;;;5070220;28;20383;-80
2022/09/07 08:36:11;;;;;;;6.28;2.83;;;14.90;99.90;;;;;;5121849;28;20362;-80
2022/09/07 08:38:39;;;;;;;6.87;2.60;;;14.80;99.90;;;;;;5119470;28;20868;-81
2022/09/07 08:41:39;;;;;;;3.35;1.85;;;14.80;99.90;;;;;;5123194;28;20671;-80
2022/09/07 08:44:09;;;;;;;7.53;1.90;;;14.70;99.90;;;;;;5121130;28;20886;-83
2022/09/07 08:46:49;;;;;;;7.43;2.05;;;14.70;99.90;;;;;;5123562;28;20443;-83
2022/09/07 08:49:39;;;;;;;4.13;1.90;;;14.60;99.90;;;;;;5121465;28;20382;-84
2022/09/07 08:52:15;;;;;;;6.15;1.95;;;14.70;99.90;;;;;;5121365;28;20444;-83
2022/09/07 08:54:49;;;;;;;5.20;1.92;;;14.60;99.90;;;;;;5121641;28;20772;-82
2022/09/07 08:57:25;;;;;;;5.20;1.95;;;14.60;99.90;;;;;;5120902;28;20431;-83
2022/09/07 09:00:06;;;;;;;6.40;2.30;;;14.60;99.90;;;;;;5121449;28;20359;-83
2022/09/07 09:02:34;;;;;;;5.32;2.50;;;14.50;99.90;;;;;;5120071;28;20401;-82
2022/09/07 09:05:03;;;;;;;4.45;2.35;;;14.50;99.90;;;;;;5126104;28;20359;-81
2022/09/07 09:08:14;;;;;;;4.78;2.05;;;14.50;99.90;;;;;;5122152;28;20870;-83
2022/09/07 09:10:54;;;;;;;3.08;1.50;;;14.50;99.90;;;;;;5040391;28;20911;-83
2022/09/07 09:16:53;;;;;;;4.45;1.25;;;14.40;99.90;;;;;;5045973;28;20444;-81
2022/09/07 09:19:23;;;;;;;3.25;1.40;;;14.30;99.90;;;;;;5053041;28;20396;-84
2022/09/07 09:22:01;;;;;;;5.78;1.60;;;14.30;99.90;;;;;;5055655;28;20580;-82
2022/09/07 09:24:36;;;;;;;4.47;2.00;;;14.30;99.90;;;;;;5038739;28;20389;-81
2022/09/07 09:27:04;;;;;;;8.00;3.00;;;14.30;99.90;;;;;;5054221;28;20370;-79
2022/09/07 09:29:32;;;;;;;6.78;3.70;;;14.20;99.90;;;;;;5038324;28;20386;-81
2022/09/07 09:32:19;;;;;;;7.97;5.25;;;14.20;99.90;;;;;;5039030;28;20412;-79
2022/09/07 09:35:09;;;;;;;7.40;3.35;;;14.90;99.90;;;;;;5046626;28;20400;-82
2022/09/07 09:37:39;;;;;;;6.55;2.60;;;14.00;99.90;;;;;;5031627;28;20381;-84
2022/09/07 09:40:17;;;;;;;4.38;2.40;;;13.90;99.90;;;;;;5031142;28;20460;-83
2022/09/07 09:42:45;;;;;;;5.00;2.30;;;13.90;99.90;;;;;;5031141;28;20381;-86
2022/09/07 09:45:20;;;;;;;5.30;2.40;;;13.90;99.90;;;;;;5045081;28;20370;-85
2022/09/07 09:47:50;;;;;;;5.15;2.30;;;13.90;99.90;;;;;;5113816;28;20432;-83
2022/09/07 09:50:26;;;;;;;7.78;2.35;;;13.90;99.90;;;;;;5114078;28;20404;-84
2022/09/07 09:52:54;;;;;;;6.53;2.55;;;13.90;99.90;;;;;;5113330;28;20398;-84
2022/09/07 09:55:26;;;;;;;5.03;2.30;;;13.80;99.90;;;;;;5113640;28;20400;-82
2022/09/07 09:58:00;;;;;;;5.85;2.35;;;13.80;99.90;;;;;;5095335;28;20379;-82
2022/09/07 10:00:30;;;;;;;5.38;2.65;;;13.80;99.90;;;;;;5113355;28;20451;-82
2022/09/07 10:03:16;;;;;;;5.90;2.63;;;13.80;99.90;;;;;;5113405;28;20371;-85
2022/09/07 10:05:46;;;;;;;5.55;2.78;;;13.70;99.90;;;;;;5113824;28;20382;-82
2022/09/07 10:08:31;;;;;;;6.10;3.47;;;13.70;99.90;;;;;;5113097;28;20504;-82
2022/09/07 10:11:03;;;;;;;7.07;3.10;;;13.60;99.90;;;;;;5113077;28;20465;-81
2022/09/07 10:13:56;;;;;;;8.97;3.73;;;13.50;99.90;;;;;;5094924;28;20890;-82
2022/09/07 10:16:43;;;;;;;8.80;4.05;;;13.50;99.90;;;;;;5104724;28;20409;-82
2022/09/07 10:19:38;;;;;;;10.67;5.67;;;13.40;99.90;;;;;;5113002;28;20401;-81
2022/09/07 10:22:29;;;;;;;9.38;4.22;;;13.40;99.90;;;;;;5113422;28;20369;-82
2022/09/07 10:24:57;;;;;;;7.97;3.40;;;13.40;99.90;;;;;;5113238;28;20446;-82
2022/09/07 10:27:32;;;;;;;7.55;3.00;;;13.40;99.90;;;;;;5113217;28;20437;-82
2022/09/07 10:30:01;;;;;;;6.40;2.80;;;13.40;99.90;;;;;;5112027;28;20773;-82
2022/09/07 10:32:40;;;;;;;5.63;2.67;;;13.40;99.90;;;;;;5077658;28;20398;-81
2022/09/07 10:35:46;;;;;;;6.47;2.70;;;13.40;99.90;;;;;;5113559;28;20412;-81
2022/09/07 10:38:17;;;;;;;6.88;2.67;;;13.40;99.90;;;;;;5031335;28;20484;-81
2022/09/07 10:40:57;;;;;;;6.57;2.97;;;13.40;99.90;;;;;;5033020;28;20373;-82
2022/09/07 10:43:42;;;;;;;5.18;2.70;;;13.40;99.90;;;;;;5036179;28;20377;-83
2022/09/07 10:46:30;;;;;;;6.57;3.20;;;13.40;99.90;;;;;;5036128;28;20377;-82
2022/09/07 10:49:31;;;;;;;5.47;2.78;;;13.40;99.90;;;;;;5035105;28;20480;-81
2022/09/07 10:52:16;;;;;;;5.80;3.00;;;13.40;99.90;;;;;;5033026;28;20469;-81
2022/09/07 10:55:25;;;;;;;6.90;2.85;;;13.40;99.90;;;;;;5032161;28;20834;-81
2022/09/07 10:57:59;;;;;;;5.87;3.00;;;13.40;99.90;;;;;;5031171;28;20388;-80
2022/09/07 11:00:36;;;;;;;4.85;2.90;;;13.40;99.90;;;;;;5031531;28;20715;-80
2022/09/07 11:03:19;;;;;;;6.07;3.50;;;13.40;99.90;;;;;;5030953;28;20383;-80
2022/09/07 11:06:17;;;;;;;8.63;3.25;;;13.40;99.90;;;;;;5030419;28;20374;-81
2022/09/07 11:08:44;;;;;;;6.32;3.45;;;13.40;99.90;;;;;;5030438;28;20487;-81
2022/09/07 11:11:22;;;;;;;7.72;3.25;;;13.40;99.90;;;;;;5030444;28;20563;-81
2022/09/07 11:13:56;;;;;;;7.55;3.20;;;13.40;99.90;;;;;;5045259;28;20382;-81
2022/09/07 11:16:32;;;;;;;8.07;3.20;;;13.40;99.90;;;;;;5112971;28;20842;-82
2022/09/07 11:19:41;;;;;;;8.25;2.95;;;13.40;99.90;;;;;;5113066;28;20403;-82
2022/09/07 11:22:14;;;;;;;6.18;3.15;;;13.40;99.90;;;;;;5094061;28;20461;-80
2022/09/07 11:24:50;;;;;;;6.05;2.70;;;13.40;99.90;;;;;;5112684;28;20366;-81
2022/09/07 11:27:41;;;;;;;5.60;2.60;;;13.40;99.90;;;;;;5113040;28;20695;-80
2022/09/07 11:30:34;;;;;;;4.93;2.30;;;13.30;99.90;;;;;;5113520;28;20756;-80
2022/09/07 11:33:03;;;;;;;6.22;3.30;;;13.30;99.90;;;;;;5112518;28;20474;-81
2022/09/07 11:35:40;;;;;;;8.23;3.42;;;13.20;99.90;;;;;;5112342;28;20367;-81
2022/09/07 11:38:43;;;;;;;7.33;3.40;;;13.20;99.90;;;;;;5112966;28;20462;-81
2022/09/07 11:41:15;;;;;;;6.65;4.00;;;13.10;99.90;;;;;;5030625;28;20377;-82
2022/09/07 11:43:56;;;;;;;9.40;4.80;;;13.00;99.90;;;;;;5033330;28;20365;-81
2022/09/07 11:46:38;;;;;;;9.45;5.55;;;13.00;99.90;;;;;;5033410;28;20385;-82
2022/09/07 11:49:13;;;;;;;10.33;5.17;;;12.90;99.90;;;;;;5033410;28;20404;-81
2022/09/07 11:51:50;;;;;;;11.43;6.60;;;12.90;99.90;;;;;;5016759;28;20393;-81
2022/09/07 11:54:17;;;;;;;15.33;7.70;;;12.90;99.90;;;;;;5034101;28;20397;-81
2022/09/07 11:56:50;;;;;;;16.05;7.65;;;12.90;99.90;;;;;;5033398;28;20369;-81
2022/09/07 11:59:37;;;;;;;15.55;7.72;;;12.90;99.90;;;;;;5033358;28;20382;-82
2022/09/07 12:02:15;;;;;;;14.18;8.32;;;12.90;99.90;;;;;;5033146;28;20486;-80
2022/09/07 12:05:00;;;;;;;15.90;7.95;;;12.80;99.90;;;;;;5032858;28;20381;-83
2022/09/07 12:07:36;;;;;;;13.88;6.18;;;12.80;99.90;;;;;;5033009;28;20411;-81
2022/09/07 12:10:15;;;;;;;11.95;5.32;;;12.80;99.90;;;;;;5032965;28;20432;-82
2022/09/07 12:12:45;;;;;;;11.80;4.55;;;12.80;99.90;;;;;;5033591;28;20409;-82
2022/09/07 12:15:39;;;;;;;8.82;4.00;;;12.80;99.90;;;;;;5033359;28;20384;-82
2022/09/07 12:18:31;;;;;;;7.23;3.53;;;12.70;99.90;;;;;;5079212;28;20375;-80
2022/09/07 12:20:58;;;;;;;7.97;3.20;;;12.70;99.90;;;;;;5116127;28;20358;-81
2022/09/07 12:23:31;;;;;;;7.07;3.10;;;12.80;99.90;;;;;;5112203;28;20383;-81
2022/09/07 12:26:33;;;;;;;9.93;3.60;;;12.70;99.90;;;;;;5115341;28;20870;-81
2022/09/07 12:29:00;;;;;;;7.95;3.50;;;12.70;99.90;;;;;;5097793;28;20449;-81
2022/09/07 12:31:47;;;;;;;9.25;3.22;;;12.80;99.90;;;;;;5115393;28;20853;-80
2022/09/07 12:34:32;;;;;;;9.57;3.00;;;12.70;99.90;;;;;;5115223;28;20746;-80
2022/09/07 12:37:01;;;;;;;8.82;3.30;;;12.70;99.90;;;;;;5115068;28;20367;-81
2022/09/07 12:39:31;;;;;;;6.50;3.55;;;12.60;99.90;;;;;;5115052;28;20359;-82
2022/09/07 12:42:07;;;;;;;8.57;3.25;;;12.60;99.90;;;;;;5115311;28;20394;-81
2022/09/07 12:44:35;;;;;;;8.05;2.95;;;12.50;99.90;;;;;;5114880;28;20386;-80
2022/09/07 12:47:23;;;;;;;11.18;3.17;;;12.50;99.90;;;;;;5115616;28;20375;-82
2022/09/07 12:50:17;;;;;;;8.13;2.70;;;12.40;99.90;;;;;;5114501;28;20930;-81
2022/09/07 12:53:07;;;;;;;5.25;2.70;;;12.40;99.90;;;;;;5114738;28;20444;-83
2022/09/07 12:56:01;;;;;;;7.00;2.30;;;12.40;99.90;;;;;;5115179;28;20702;-82
2022/09/07 12:58:45;;;;;;;7.35;2.33;;;12.30;99.90;;;;;;5115150;28;20734;-81
2022/09/07 13:01:21;;;;;;;6.22;1.95;;;12.30;99.90;;;;;;5115289;28;20369;-82
2022/09/07 13:04:11;;;;;;;5.68;2.22;;;12.30;99.90;;;;;;5126211;28;20363;-80
2022/09/07 13:06:56;;;;;;;5.47;2.05;;;12.30;99.90;;;;;;5125850;28;20390;-80
2022/09/07 13:09:37;;;;;;;6.10;2.10;;;12.20;99.90;;;;;;5124148;28;20381;-82
2022/09/07 13:12:33;;;;;;;4.72;1.95;;;12.20;99.90;;;;;;5124630;28;20455;-79
2022/09/07 13:15:01;;;;;;;7.50;2.15;;;12.10;99.90;;;;;;5135702;28;20335;-79
2022/09/07 13:17:35;;;;;;;5.43;1.90;;;12.00;99.90;;;;;;5135134;28;20714;-86
2022/09/07 13:20:02;;;;;;;7.20;1.98;;;12.00;99.90;;;;;;5136354;28;20339;-80
2022/09/07 13:22:32;;;;;;;6.68;1.90;;;11.90;99.90;;;;;;5137657;28;20454;-79
2022/09/07 13:25:02;;;;;;;5.13;1.80;;;11.90;99.90;;;;;;5138079;28;20343;-79
2022/09/07 13:27:50;;;;;;;4.10;1.73;;;11.80;99.90;;;;;;5132622;28;20373;-79